Accueil
METAR-TAF:

METAR-TAF

Aéroports :

Aéroport international José-Martí

La Havane, Cuba

latitude: 22-59N, longitude: 082-24W, altitude: 59 m

Observation

Le bulletin a été fait il y a 38 minutes, à 18:55 UTC
Vent 10 kt de est/nord-est
Température 31°C
Humidité 59%
Pression 1017 hPa
Visibilité: 9000 m
Nuages épars à une hauteur de 2500 ft

METAR: MUHA 191855Z 07010KT 9000 SCT025 31/22 Q1017

Heure: 15:33 (19:33 UTC)

Prévision

Le bulletin a été fait il y a 2 heures et 33 minutes, à 17:00 UTC
Prévision valable du 19 à 18 UTC au 20 à 18 UTC
Vent 12 kt de est/sud-est
Visibilité: 9000 m
Nuages épars à une hauteur de 3000 ft
Evoluant progressivement
du 20 à 02 UTC au 20 à 04 UTC
Vent 5 kt de est

TAF: MUHA 191700Z 1918/2018 11012KT 9000 SCT030 BECMG 2002/2004 09005KT

Observations et prévisions météorologiques de plus de 4000 aéroports (messages METAR et TAF).

Les stations disponibles sont représentées par des disques jaunes et rouges sur la carte.

Passer la souris dessus pour voir le nom de la station.

Cliquer dessus pour voir les observations et prévisions météorologiques.

Pour changer de carte: cliquez sur les boutons verts avec une croix noire pour zoomer, sur le bouton vert avec un tiret pour effectuer un zoom arrière, ou sur les flèches vertes pour les cartes adjacentes.


METAR-TAF: